Архив погоды в Октябрьском Городке

Метеограмма Октябрьский Городок
Понедельник, 24 Сентября
Время местн. Темп Ветер Видим Явления Облачность нижн/средн/верх Атм. давл. Влжн Точка росы ВНГО R Сост. почвы Tg s
Напр Скр Прв ур.ст ур.м изм
12:00 +12.1° С-З 6 11 20 км - преимущественно облачно 743 761 +1.7 75% +7.9° 1 км - - - -
09:00 +11.5° З,С-З 7 12 20 км небо без изменений {дождь} облачно 741 759 +1.3 88% +9.6° 600 м - - - -
06:00 +10.1° З,С-З 6 10 10 км умеренный непрерывный дождь облачно 740 758 +0.8 101% +10.3° - - Сырая (есть малые или большие лужи) - -
03:00 +13.5° Ю 2 - 20 км дождь облачно 739 757 -1 101% +13.6° - - - - -
00:00 +16.4° Ю,Ю-З 4 - 20 км - облачно 740 758 -1.3 59% +8.3° - - - - -
Воскресенье, 23 Сентября
Время местн. Темп Ветер Видим Явления Облачность нижн/средн/верх Атм. давл. Влжн Точка росы ВНГО R Сост. почвы Tg s
Напр Скр Прв ур.ст ур.м изм
21:00 +12.9° В,Ю-В 2 - 20 км - облачно с прояснениями 741 759 -1.3 67% +7° более 2.5 км - - - -
18:00 +19.3° Ю 3 - 20 км - переменная облачность 742 760 -1.5 46% +7.3° более 2.5 км - - - -
15:00 +23.1° Ю 5 10 20 км - облачно с прояснениями 744 762 -1.5 41% +9.3° 1.5 км - - - -
12:00 +22.8° Ю 5 - 20 км - переменная облачность 745 763 -1.2 48% +11.2° 1.5 км - - - -
09:00 +19.8° Ю 3 - 20 км - ясно 747 764 -0.6 64% +12.7° более 2.5 км - - - -
06:00 +10.8° В 2 - 20 км - ясно 747 766 -0.8 97% +10.4° более 2.5 км - Сухая (без трещин) - -
03:00 +11.6° С,С-В 1 - 20 км - ясно 748 766 -0.4 94% +10.7° более 2.5 км - - - -
00:00 +13.2° штиль 0 - 20 км - ясно 748 767 -0.3 87% +11.1° более 2.5 км - - - -
Суббота, 22 Сентября
Время местн. Темп Ветер Видим Явления Облачность нижн/средн/верх Атм. давл. Влжн Точка росы ВНГО R Сост. почвы Tg s
Напр Скр Прв ур.ст ур.м изм
21:00 +14.1° С-В 1 - 20 км - переменная облачность 749 767 +0.1 86% +11.8° более 2.5 км - - - -
18:00 +19.6° Ю-З 1 - 20 км - переменная облачность 749 767 -0.7 61% +12° более 2.5 км - - - -
15:00 +25° Ю-З 1 - 20 км - переменная облачность 749 767 -0.9 39% +10.2° - - - - -
12:00 +23.6° З 1 - 20 км - переменная облачность 750 768 -0.4 44% +10.7° более 2.5 км - - - -
06:00 +8.3° З 2 - 10 км - ясно 750 769 +0.5 92% +7° более 2.5 км - Влажная (без луж) - -
03:00 +9.1° З 1 - 20 км - ясно 750 768 +0.5 101% +9.2° более 2.5 км - - - -
00:00 +10.7° З 2 - 20 км - ясно 749 768 +0.7 97% +10.3° более 2.5 км - - - -
Пятница, 21 Сентября
Время местн. Темп Ветер Видим Явления Облачность нижн/средн/верх Атм. давл. Влжн Точка росы ВНГО R Сост. почвы Tg s
Напр Скр Прв ур.ст ур.м изм
21:00 +12.8° Ю,Ю-З 1 - 20 км - ясно 748 767 +0.8 88% +10.8° более 2.5 км - - - -
18:00 +18.6° С 1 - 20 км - переменная облачность 748 765 +0.4 63% +11.5° 1 км - - - -
15:00 +20.9° С,С-В 3 - 20 км - переменная облачность 747 765 +0.6 53% +11.1° 1 км - - - -
12:00 +20.5° С 5 - 20 км - переменная облачность 746 764 +0.8 59% +12.1° 1 км - - - -
09:00 +16.4° С 4 - 20 км - переменная облачность 746 764 +1.2 81% +13.1° более 2.5 км - - - -
06:00 +11.7° С-З 2 - 10 км - облачно 744 763 +1.5 99% +11.5° более 2.5 км - Влажная (без луж) - -